TOURFACTS.DK  
Stats and Facts from Tour de France.

Tour de France 2019 starts in 320 days
  Riders   Stages   Teams   Summits   Yearly  


 
Search by year

After 2018 - Stage 21:
 15000 starters.
  5165 different riders.
  638 teams.
  2253 stages.
  456 restdays.
  442940.60 km.
  5684 abandonnees.


Top 3
GC
Geraint Thomas83:17:13
Tom Dumoulin83:19:04
Christopher Froome83:19:37
Climb
Julian Alaphilippe170 pt.
Warren Barguil91 pt.
Rafal Majka76 pt.
Sprint
Peter Sagan477 pt.
Alexander Kristoff246 pt.
Arnaud Démare203 pt.
Youth
Pierre-Roger Latou..83:39:26
Egan Bernal83:45:05
Guillaume Martin84:01:31
Facts from Tour de France 2016
  |   Stages.  |   Stage winners.  |   Days in yellow  |   Average speed.  |   Route.  |   Teams.  |   All riders.  |   Rookies.  |  

  |   Withdrawls.  |   GC.  |   Polka  |   Green  |   White  |   Summits. (In tour)  |   Miscellaneous.  |  

Stage 8 on 09 - 07 - 2016
         Owning:    Christopher Froome      Rafal Majka      Mark Cavendish      Adam Yates  

Pick a stage:  1 2 3 4 5 6 7 8 9 10 11 12 13 14 15 16 17 18 19 20 21
  PauBagnères-de-Luchon | Dist: 183.00 km.
Cat: HCol du TourmaletFRAThibaut Pinot25 points 
Cat: 2La Hourquette d'AncizanFRAThibaut Pinot5 points 
Cat: 1Col de Val Louron-AzetNEDWout Poels10 points 
Cat: 1Col de PeyresourdeKENChristopher Froome10 points 

Average speed for all riders in stage:  33,893 km./hr.
    Place:Name:Team:Time:Km/h:
1
KENChristopher FroomeGBRSky Procycling04:57:33  +  00:00:00=36,901 
2
ENGDaniel MartinBELEtixx - Quick Step04:57:46  +  00:00:13=36,875 
3
ESPJoaquim RodriguezRUSTeam Katusha04:57:46  +  00:00:13=36,875 
44 FRARomain BardetFRAAg2r La Mondiale04:57:46  +  00:00:13=36,875 
55 CZERoman KreuzigerRUSTinkoff04:57:46  +  00:00:13=36,875 
66 ITAFabio AruKAZAstana Pro Team04:57:46  +  00:00:13=36,875 
77 ENGAdam YatesAUSORICA BikeExchange04:57:46  +  00:00:13=36,875 
88 ESPAlejandro ValverdeESPMovistar Team04:57:46  +  00:00:13=36,875 
99 NEDBauke MollemaUSATrek - Segafredo04:57:46  +  00:00:13=36,875 
1010 AUSRichie PorteUSABMC Racing Team04:57:46  +  00:00:13=36,875 
1111 COLNairo QuintanaESPMovistar Team04:57:46  +  00:00:13=36,875 
1212 USATejay Van GarderenUSABMC Racing Team04:57:46  +  00:00:13=36,875 
1313 RSALouis MeintjesITALampre-Merida04:57:46  +  00:00:13=36,875 
1414 COLSergio Luis HenaoGBRSky Procycling04:57:46  +  00:00:13=36,875 
1515 GEREmanuel BuchmannDEUBora-Argon 1804:59:14  +  00:01:41=36,694 
1616 FRAWarren BarguilDEUTeam Giant Alpecin04:59:14  +  00:01:41=36,694 
1717 ESPAlberto ContadorRUSTinkoff04:59:14  +  00:01:41=36,694 
1818 COLJarlinson Pantano GomezCHEIAM Cycling04:59:14  +  00:01:41=36,694 
1919 WALGeraint ThomasGBRSky Procycling04:59:14  +  00:01:41=36,694 
2020 ESPMikel NieveGBRSky Procycling04:59:14  +  00:01:41=36,694 
2121 ITADomenico PozzovivoFRAAg2r La Mondiale04:59:14  +  00:01:41=36,694 
2222 LUXFränk SchleckUSATrek - Segafredo04:59:14  +  00:01:41=36,694 
2323 BELJurgen Van Den BroeckRUSTeam Katusha04:59:14  +  00:01:41=36,694 
2424 FRAPierre RollandUSATeam Cannondale Drapac04:59:18  +  00:01:45=36,686 
2525 SUIJakob FuglsangKAZAstana Pro Team04:59:18  +  00:01:45=36,686 
2626 NEDWilco KeldermanNLDTeam Lotto NL - Jumbo04:59:18  +  00:01:45=36,686 
2727 SUISébastien ReichenbachFRAFDJ05:00:28  +  00:02:55=36,543 
2828 ITADamiano CarusoUSABMC Racing Team05:01:43  +  00:04:10=36,392 
2929 NZLGeorge BennettNLDTeam Lotto NL - Jumbo05:01:45  +  00:04:12=36,388 
3030 URSTanel KangertKAZAstana Pro Team05:01:45  +  00:04:12=36,388 
3131 ESPJon Izaguirre InsaustiESPMovistar Team05:01:45  +  00:04:12=36,388 
3232 ARGEduardo SepulvedaFRAFortuneo - Vital Concept05:03:04  +  00:05:31=36,230 
3333 FRAThomas VoecklerFRADirect Energie05:07:51  +  00:10:18=35,667 
3434 NEDLaurens ten DamDEUTeam Giant Alpecin05:07:51  +  00:10:18=35,667 
3535 ESPHaimar ZubeldiaUSATrek - Segafredo05:07:51  +  00:10:18=35,667 
3636 ESPMikel Landa MeanaGBRSky Procycling05:07:51  +  00:10:18=35,667 
3737 POLRafal MajkaRUSTinkoff05:08:59  +  00:11:26=35,536 
3838 NEDWout PoelsGBRSky Procycling05:08:59  +  00:11:26=35,536 
3939 FRAAlexis VuillermozFRAAg2r La Mondiale05:10:07  +  00:12:34=35,406 
4040 SUISteve MorabitoFRAFDJ05:10:58  +  00:13:25=35,309 
4141 RUSIlnur ZakarinRUSTeam Katusha05:10:58  +  00:13:25=35,309 
4242 POLBartosz HuzarskiDEUBora-Argon 1805:10:58  +  00:13:25=35,309 
4343 FRAAmaël MoinardUSABMC Racing Team05:10:58  +  00:13:25=35,309 
4444 USAPeter StetinaUSATrek - Segafredo05:10:58  +  00:13:25=35,309 
4545 ESPRubén PlazaAUSORICA BikeExchange05:10:58  +  00:13:25=35,309 
4646 ESPDaniel NavarroFRACofidis – Solutions Crédits05:10:58  +  00:13:25=35,309 
4747 AUTGeorg PreidlerDEUTeam Giant Alpecin05:10:58  +  00:13:25=35,309 
4848 GERTony MartinBELEtixx - Quick Step05:10:58  +  00:13:25=35,309 
4949 SUIMathias FrankCHEIAM Cycling05:10:58  +  00:13:25=35,309 
5050 HRVRobert KiserlovskiRUSTinkoff05:10:58  +  00:13:25=35,309 
5151 FRAThibaut PinotFRAFDJ05:13:52  +  00:16:19=34,983 
5252 RSADaryl ImpeyAUSORICA BikeExchange05:13:52  +  00:16:19=34,983 
5353 NEDTom DumoulinDEUTeam Giant Alpecin05:16:10  +  00:18:37=34,729 
5454 ESPGorka Izaguirre InsaustiESPMovistar Team05:18:27  +  00:20:54=34,480 
5555 PORNelson OliveiraESPMovistar Team05:18:27  +  00:20:54=34,480 
5656 FRAFabrice JeandesbozFRADirect Energie05:18:57  +  00:21:24=34,425 
5757 KAZAlexey LutsenkoKAZAstana Pro Team05:20:06  +  00:22:33=34,302 
5858 ESPAlberto LosadaRUSTeam Katusha05:21:42  +  00:24:09=34,131 
5959 NEDDylan Van BaarleUSATeam Cannondale Drapac05:22:47  +  00:25:14=34,017 
6060 NEDStef ClementCHEIAM Cycling05:23:15  +  00:25:42=33,968 
6161 UKRAndriy GrivkoKAZAstana Pro Team05:23:15  +  00:25:42=33,968 
6262 DENChris Anker SørensenFRAFortuneo - Vital Concept05:23:15  +  00:25:42=33,968 
6363 FRAAnthony RouxFRAFDJ05:23:15  +  00:25:42=33,968 
6464 SUIMartin ElmigerCHEIAM Cycling05:23:15  +  00:25:42=33,968 
6565 ESPLuis Angel MateFRACofidis – Solutions Crédits05:23:15  +  00:25:42=33,968 
6666 COLWinner AnaconaESPMovistar Team05:23:15  +  00:25:42=33,968 
6767 SUIMichael SchärUSABMC Racing Team05:23:15  +  00:25:42=33,968 
6868 AUSRohan DennisUSABMC Racing Team05:23:15  +  00:25:42=33,968 
6969 FRAJulian AlaphilippeBELEtixx - Quick Step05:23:15  +  00:25:42=33,968 
7070 BELOliver NaesenCHEIAM Cycling05:23:15  +  00:25:42=33,968 
7171 FRAMickaël CherelFRAAg2r La Mondiale05:23:15  +  00:25:42=33,968 
7272 SLOJan PolancITALampre-Merida05:23:15  +  00:25:42=33,968 
7373 AUSSimon GerransAUSORICA BikeExchange05:23:15  +  00:25:42=33,968 
7474 FRAArnold JeannessonFRACofidis – Solutions Crédits05:23:15  +  00:25:42=33,968 
7575 AUSLuke DurbridgeAUSORICA BikeExchange05:23:15  +  00:25:42=33,968 
7676 FRATony GallopinBELLotto Soudal05:23:15  +  00:25:42=33,968 
7777 FRASylvain ChavanelFRADirect Energie05:23:15  +  00:25:42=33,968 
7878 ITAPaolo TiralongoKAZAstana Pro Team05:23:15  +  00:25:42=33,968 
7979 AUTPatrick KonradDEUBora-Argon 1805:23:15  +  00:25:42=33,968 
8080 ITAVincenzo NibaliKAZAstana Pro Team05:23:15  +  00:25:42=33,968 
8181 HRVKristijan DurasekITALampre-Merida05:23:15  +  00:25:42=33,968 
8282 DENMichael ValgrenRUSTinkoff05:23:15  +  00:25:42=33,968 
8383 IRLChristopher Juul JensenAUSORICA BikeExchange05:23:15  +  00:25:42=33,968 
8484 ERIDaniel TeklehaimanotZAFDimension Data05:23:15  +  00:25:42=33,968 
8585 CZEJan BártaDEUBora-Argon 1805:23:15  +  00:25:42=33,968 
8686 BELGreg Van AvermaetUSABMC Racing Team05:23:15  +  00:25:42=33,968 
8787 GERMarcus BurghardtUSABMC Racing Team05:23:15  +  00:25:42=33,968 
8888 LUXBen GastauerFRAAg2r La Mondiale05:23:15  +  00:25:42=33,968 
8989 FRARomain SicardFRADirect Energie05:23:15  +  00:25:42=33,968 
9090 PORRui CostaITALampre-Merida05:23:15  +  00:25:42=33,968 
9191 ESPLuis León SánchezKAZAstana Pro Team05:23:27  +  00:25:54=33,947 
9292 ESPDaniel MorenoESPMovistar Team05:23:27  +  00:25:54=33,947 
9393 BELThomas De GendtBELLotto Soudal05:27:05  +  00:29:32=33,569 
9494 FRAArthur VichotFRAFDJ05:30:21  +  00:32:48=33,237 
9595 ITACesare BenedettiDEUBora-Argon 1805:30:21  +  00:32:48=33,237 
9696 SUIReto HollensteinCHEIAM Cycling05:30:21  +  00:32:48=33,237 
9797 FRAJérémy RoyFRAFDJ05:30:21  +  00:32:48=33,237 
9898 AUTMarco HallerRUSTeam Katusha05:32:16  +  00:34:43=33,046 
9999 SUIFabian CancellaraUSATrek - Segafredo05:32:16  +  00:34:43=33,046 
100100 NEDRoy CurversDEUTeam Giant Alpecin05:32:16  +  00:34:43=33,046 
101101 NEDTom-Jelte SlagterUSATeam Cannondale Drapac05:32:16  +  00:34:43=33,046 
102102 USALawson CraddockUSATeam Cannondale Drapac05:32:16  +  00:34:43=33,046 
103103 SUIGregory RastUSATrek - Segafredo05:32:16  +  00:34:43=33,046 
104104 GERSimon GeschkeDEUTeam Giant Alpecin05:32:16  +  00:34:43=33,046 
105105 ESPMarkel IrizarUSATrek - Segafredo05:32:16  +  00:34:43=33,046 
106106 SLOLuka PibernikITALampre-Merida05:32:16  +  00:34:43=33,046 
107107 RSAReinardt Janse Van RensburgZAFDimension Data05:32:16  +  00:34:43=33,046 
108108 ESPImanol ErvitiESPMovistar Team05:32:16  +  00:34:43=33,046 
109109 BELJulien VermoteBELEtixx - Quick Step05:32:16  +  00:34:43=33,046 
110110 BELMaarten WynantsNLDTeam Lotto NL - Jumbo05:32:16  +  00:34:43=33,046 
111111 AUSMichael MatthewsAUSORICA BikeExchange05:32:16  +  00:34:43=33,046 
112112 ESPJesus HerradaESPMovistar Team05:32:16  +  00:34:43=33,046 
113113 FRAWilliam BonnetFRAFDJ05:32:16  +  00:34:43=33,046 
114114 GERAndreas SchillingerDEUBora-Argon 1805:32:16  +  00:34:43=33,046 
115115 USAAlex HowesUSATeam Cannondale Drapac05:32:16  +  00:34:43=33,046 
116116 ENGIan StannardGBRSky Procycling05:32:16  +  00:34:43=33,046 
117117 FRAAngelo TulikFRADirect Energie05:32:16  +  00:34:43=33,046 
118118 FRAYohann GèneFRADirect Energie05:32:16  +  00:34:43=33,046 
119119 FRABryan CoquardFRADirect Energie05:32:16  +  00:34:43=33,046 
120120 BELJan BakelantsFRAAg2r La Mondiale05:32:16  +  00:34:43=33,046 
121121 BELSerge PauwelsZAFDimension Data05:32:16  +  00:34:43=33,046 
122122 FRANicolas EdetFRACofidis – Solutions Crédits05:32:16  +  00:34:43=33,046 
123123 POLMaciej BodnarRUSTinkoff05:32:16  +  00:34:43=33,046 
124124 ITAMatteo TosattoRUSTinkoff05:32:16  +  00:34:43=33,046 
125125 CZEPetr VakocBELEtixx - Quick Step05:32:16  +  00:34:43=33,046 
126126 ERINatnael Teweldemedhin BerhaneZAFDimension Data05:32:16  +  00:34:43=33,046 
127127 GERPaul MartensNLDTeam Lotto NL - Jumbo05:32:16  +  00:34:43=33,046 
128128 GERPaul VossDEUBora-Argon 1805:32:16  +  00:34:43=33,046 
129129 AUSMathew HaymanAUSORICA BikeExchange05:32:16  +  00:34:43=33,046 
130130 SUIMichael AlbasiniAUSORICA BikeExchange05:32:16  +  00:34:43=33,046 
131131 NEDTimo RoosenNLDTeam Lotto NL - Jumbo05:32:16  +  00:34:43=33,046 
132132 FRAChristophe LaporteFRACofidis – Solutions Crédits05:32:16  +  00:34:43=33,046 
133133 FRAJérôme CoppelCHEIAM Cycling05:32:16  +  00:34:43=33,046 
134134 BLRVasil KiryienkaGBRSky Procycling05:32:16  +  00:34:43=33,046 
135135 URSRamunas NavardauskasUSATeam Cannondale Drapac05:32:16  +  00:34:43=33,046 
136136 NOREdvald Boasson HagenZAFDimension Data05:32:16  +  00:34:43=33,046 
137137 SVKPeter SaganRUSTinkoff05:32:16  +  00:34:43=33,046 
138138 FRABrice FeilluFRAFortuneo - Vital Concept05:32:16  +  00:34:43=33,046 
139139 ESPÁngel ViciosoRUSTeam Katusha05:32:16  +  00:34:43=33,046 
140140 JPNYukiya ArashiroITALampre-Merida05:32:16  +  00:34:43=33,046 
141141 FRAJérôme CousinFRACofidis – Solutions Crédits05:32:16  +  00:34:43=33,046 
142142 BELIljo KeisseBELEtixx - Quick Step05:36:57  +  00:39:24=32,586 
143143 ITAFabio SabatiniBELEtixx - Quick Step05:36:57  +  00:39:24=32,586 
144144 FRAGeoffrey SoupeFRACofidis – Solutions Crédits05:36:57  +  00:39:24=32,586 
145145 GERMarcel SiebergBELLotto Soudal05:36:57  +  00:39:24=32,586 
146146 BELEdward TheunsUSATrek - Segafredo05:36:57  +  00:39:24=32,586 
147147 FRACyril LemoineFRACofidis – Solutions Crédits05:36:57  +  00:39:24=32,586 
148148 ITAOscar GattoRUSTinkoff05:36:57  +  00:39:24=32,586 
149149 NORSondre Holst EngerCHEIAM Cycling05:36:57  +  00:39:24=32,586 
150150 GERMarcel KittelBELEtixx - Quick Step05:36:57  +  00:39:24=32,586 
151151 GERRobert WagnerNLDTeam Lotto NL - Jumbo05:36:57  +  00:39:24=32,586 
152152 GERAndré GreipelBELLotto Soudal05:36:57  +  00:39:24=32,586 
153153 AUSAdam HansenBELLotto Soudal05:36:57  +  00:39:24=32,586 
154154 NORAlexander KristoffRUSTeam Katusha05:36:57  +  00:39:24=32,586 
155155 CANAntoine DuchesneFRADirect Energie05:36:57  +  00:39:24=32,586 
156156 ETHTsgabu Gebremaryan GrmayITALampre-Merida05:36:57  +  00:39:24=32,586 
157157 FRACédric PineauFRAFDJ05:36:57  +  00:39:24=32,586 
158158 ITAMatteo BonoITALampre-Merida05:36:57  +  00:39:24=32,586 
159159 BRAMaximilano RichezeBELEtixx - Quick Step05:36:57  +  00:39:24=32,586 
160160 WALLuke RoweGBRSky Procycling05:36:57  +  00:39:24=32,586 
161161 BELSam BennettDEUBora-Argon 1805:36:57  +  00:39:24=32,586 
162162 AUSLeigh HowardCHEIAM Cycling05:36:57  +  00:39:24=32,586 
163163 FRAMatthieu LadagnousFRAFDJ05:36:57  +  00:39:24=32,586 
164164 NEDBert-Jan LindemanNLDTeam Lotto NL - Jumbo05:36:57  +  00:39:24=32,586 
165165 ITAJacopo GuarnieriRUSTeam Katusha05:36:57  +  00:39:24=32,586 
166166 ITADavide CimolaiITALampre-Merida05:36:57  +  00:39:24=32,586 
167167 USABrent BookwalterUSABMC Racing Team05:36:57  +  00:39:24=32,586 
168168 NORVegard BreenFRAFortuneo - Vital Concept05:36:57  +  00:39:24=32,586 
169169 SLOKristjan KorenUSATeam Cannondale Drapac05:36:57  +  00:39:24=32,586 
170170 SLOBorut BozicFRACofidis – Solutions Crédits05:36:57  +  00:39:24=32,586 
171171 FRAAnthony DelaplaceFRAFortuneo - Vital Concept05:36:57  +  00:39:24=32,586 
172172 FRAFlorian VachonFRAFortuneo - Vital Concept05:36:57  +  00:39:24=32,586 
173173 FRAPierre-Luc PérichonFRAFortuneo - Vital Concept05:36:57  +  00:39:24=32,586 
174174 NZLGregory HendersonBELLotto Soudal05:36:57  +  00:39:24=32,586 
175175 BELJürgen RoelandtsBELLotto Soudal05:36:57  +  00:39:24=32,586 
176176 FRA Alexis GougeardFRAAg2r La Mondiale05:36:57  +  00:39:24=32,586 
177177 ITADiego RosaKAZAstana Pro Team05:36:57  +  00:39:24=32,586 
178178 NEDAlbert TimmerDEUTeam Giant Alpecin05:36:57  +  00:39:24=32,586 
179179 NEDRamon SinkeldamDEUTeam Giant Alpecin05:36:57  +  00:39:24=32,586 
180180 BELSep VanmarckeNLDTeam Lotto NL - Jumbo05:36:57  +  00:39:24=32,586 
181181 GERJohn DegenkolbDEUTeam Giant Alpecin05:36:57  +  00:39:24=32,586 
182182 FRAArmindo FonsecaFRAFortuneo - Vital Concept05:36:57  +  00:39:24=32,586 
183183 FRACyril GautierFRAAg2r La Mondiale05:36:57  +  00:39:24=32,586 
184184 ENGDaniel McLayFRAFortuneo - Vital Concept05:36:57  +  00:39:24=32,586 
185185 FRAAdrien PetitFRADirect Energie05:36:57  +  00:39:24=32,586 
186186 AUSMark RenshawZAFDimension Data05:36:57  +  00:39:24=32,586 
187187 NEDSebastian LangeveldUSATeam Cannondale Drapac05:36:57  +  00:39:24=32,586 
188188 DENMatti BreschelUSATeam Cannondale Drapac05:36:57  +  00:39:24=32,586 
189189 BELJens DebusschereBELLotto Soudal05:36:57  +  00:39:24=32,586 
190190 BELJasper StuyvenUSATrek - Segafredo05:36:57  +  00:39:24=32,586 
191191 FRASamuel DumoulinFRAAg2r La Mondiale05:36:57  +  00:39:24=32,586 
192192 ENGStephen CummingsZAFDimension Data05:36:57  +  00:39:24=32,586 
193193 DENLars BakBELLotto Soudal05:36:57  +  00:39:24=32,586 
194194 NEDDylan GroenewegenNLDTeam Lotto NL - Jumbo05:36:57  +  00:39:24=32,586 
195195 NZLShane ArchboldDEUBora-Argon 1805:36:57  +  00:39:24=32,586 
196196 IOMMark CavendishZAFDimension Data05:36:57  +  00:39:24=32,586 
197197 AUTBernhard EiselZAFDimension Data05:36:57  +  00:39:24=32,586 

Withdrawls: 1
 
Rider
Team
Reason
146  DENMichael MørkøvRUSTeam KatushaDid not finish
Todays birthdays.

1878  Jean Novo
1883  Jules Chabas
1890  Ange Aubry
1893  Roger Marye
1913  Paul Maye
1914  Lucien Vlaemynck
1915  Alphonse Antoine
1932  Rolf Graf
1953  Julio Rubiano
1959  Jos Haex
1959  Gerard Veldscholten
1963  Pablo Moreno
1964  Juan Castillo
1977  Iban Mayo
1994  Fernando Gaviria